createdAt,value
2023-03-22T00:00:35.820Z,45.54
2023-03-22T00:01:35.853Z,44.25
2023-03-22T00:02:35.866Z,49.03
2023-03-22T00:03:35.856Z,52.18
2023-03-22T00:04:35.816Z,44.48
2023-03-22T00:05:35.839Z,50.56
2023-03-22T00:06:35.799Z,66.89
2023-03-22T00:07:35.796Z,45.92
2023-03-22T00:08:35.831Z,44.35
2023-03-22T00:09:35.772Z,50.75
2023-03-22T00:10:35.754Z,51.20
2023-03-22T00:12:09.009Z,53.14
2023-03-22T00:12:35.730Z,54.89
2023-03-22T00:13:35.825Z,45.77
2023-03-22T00:14:35.740Z,50.38
2023-03-22T00:15:35.728Z,50.95
2023-03-22T00:16:35.730Z,43.95
2023-03-22T00:17:35.942Z,52.72
2023-03-22T00:18:35.694Z,52.38
2023-03-22T00:19:35.721Z,43.48
2023-03-22T00:20:35.728Z,42.25
2023-03-22T00:21:35.676Z,49.33
2023-03-22T00:22:35.642Z,42.27
2023-03-22T00:23:35.651Z,42.90
2023-03-22T00:24:35.652Z,44.39
2023-03-22T00:25:35.662Z,48.48
2023-03-22T00:26:35.636Z,42.67
2023-03-22T00:27:35.631Z,45.38
2023-03-22T00:28:35.609Z,46.42
2023-03-22T00:29:35.648Z,42.46
2023-03-22T00:30:35.634Z,50.76
2023-03-22T00:31:35.702Z,56.09
2023-03-22T00:32:35.607Z,44.16
2023-03-22T00:33:35.616Z,44.60
2023-03-22T00:34:35.573Z,50.89
2023-03-22T00:35:35.613Z,44.42
2023-03-22T00:36:35.543Z,44.26
2023-03-22T00:37:35.564Z,42.59
2023-03-22T00:38:42.016Z,41.72
2023-03-22T00:39:37.530Z,48.52
2023-03-22T00:40:35.538Z,42.04
2023-03-22T00:41:35.525Z,42.65
2023-03-22T00:42:35.529Z,49.67
2023-03-22T00:43:35.556Z,44.79
2023-03-22T00:44:35.644Z,49.96
2023-03-22T00:45:35.491Z,46.17
2023-03-22T00:46:35.559Z,49.11
2023-03-22T00:47:35.507Z,50.71
2023-03-22T00:48:35.451Z,53.94
2023-03-22T00:49:35.460Z,42.11
2023-03-22T00:50:35.487Z,42.94
2023-03-22T00:51:35.451Z,49.11
2023-03-22T00:52:35.451Z,43.22
2023-03-22T00:53:35.530Z,55.03
2023-03-22T00:54:35.466Z,42.71
2023-03-22T00:55:35.422Z,50.65
2023-03-22T00:56:35.424Z,50.26
2023-03-22T00:57:35.406Z,42.65
2023-03-22T00:58:35.418Z,50.16
2023-03-22T00:59:35.410Z,51.17
2023-03-22T01:00:35.402Z,42.30
2023-03-22T01:01:35.472Z,46.31
2023-03-22T01:02:35.381Z,44.68
2023-03-22T01:03:35.396Z,44.19
2023-03-22T01:04:35.371Z,44.41
2023-03-22T01:05:35.352Z,49.80
2023-03-22T01:06:35.324Z,52.86
2023-03-22T01:07:35.319Z,51.47
2023-03-22T01:08:35.324Z,45.65
2023-03-22T01:09:35.321Z,50.73
2023-03-22T01:10:35.297Z,43.65
2023-03-22T01:11:35.276Z,43.42
2023-03-22T01:12:35.275Z,52.57
2023-03-22T01:13:35.321Z,43.67
2023-03-22T01:14:35.257Z,46.38
2023-03-22T01:15:35.258Z,50.22
2023-03-22T01:16:35.256Z,55.10
2023-03-22T01:17:35.250Z,58.19
2023-03-22T01:18:35.263Z,44.64
2023-03-22T01:19:35.260Z,47.07
2023-03-22T01:20:35.225Z,57.48
2023-03-22T01:21:35.213Z,46.02
2023-03-22T01:22:35.184Z,51.38
2023-03-22T01:23:35.177Z,60.83
2023-03-22T01:24:35.233Z,44.71
2023-03-22T01:25:35.158Z,60.69
2023-03-22T01:26:35.188Z,47.19
2023-03-22T01:27:35.174Z,56.64
2023-03-22T01:28:35.211Z,52.60
2023-03-22T01:29:35.152Z,45.23
2023-03-22T01:30:35.180Z,46.85
2023-03-22T01:31:35.128Z,61.25
2023-03-22T01:32:35.155Z,43.53
2023-03-22T01:33:35.119Z,45.20
2023-03-22T01:34:35.122Z,46.19
2023-03-22T01:35:35.158Z,50.80
2023-03-22T01:36:35.159Z,42.80
2023-03-22T01:37:35.180Z,55.81
2023-03-22T01:38:35.079Z,48.09
2023-03-22T01:39:35.132Z,49.62
2023-03-22T01:40:35.125Z,43.45
2023-03-22T01:41:35.104Z,44.23
2023-03-22T01:42:35.076Z,44.54
2023-03-22T01:43:35.063Z,43.76
2023-03-22T01:44:35.093Z,55.65
2023-03-22T01:45:35.079Z,48.56
2023-03-22T01:46:35.044Z,47.38
2023-03-22T01:47:35.088Z,50.41
2023-03-22T01:48:35.026Z,49.99
2023-03-22T01:49:34.996Z,50.87
2023-03-22T01:50:35.016Z,45.73
2023-03-22T01:51:35.011Z,51.18
2023-03-22T01:52:35.019Z,51.03
2023-03-22T01:53:35.045Z,42.83
2023-03-22T01:54:34.964Z,49.08
2023-03-22T01:55:34.971Z,41.84
2023-03-22T01:56:35.002Z,51.04
2023-03-22T01:57:34.984Z,44.15
2023-03-22T01:58:34.939Z,62.78
2023-03-22T01:59:34.956Z,47.38
2023-03-22T02:00:34.906Z,50.42
2023-03-22T02:01:35.104Z,44.18
2023-03-22T02:02:34.972Z,42.98
2023-03-22T02:03:34.878Z,50.22
2023-03-22T02:04:34.910Z,43.76
2023-03-22T02:05:34.897Z,51.00
2023-03-22T02:06:34.875Z,53.53
2023-03-22T02:07:34.896Z,50.86
2023-03-22T02:08:34.855Z,43.74
2023-03-22T02:09:35.452Z,49.77
2023-03-22T02:10:36.621Z,47.12
2023-03-22T02:11:34.857Z,49.96
2023-03-22T02:12:34.832Z,43.49
2023-03-22T02:13:34.876Z,48.05
2023-03-22T02:14:34.845Z,47.30
2023-03-22T02:15:34.834Z,51.33
2023-03-22T02:16:34.780Z,45.24
2023-03-22T02:17:34.771Z,46.24
2023-03-22T02:18:34.767Z,48.59
2023-03-22T02:19:34.769Z,52.36
2023-03-22T02:20:34.773Z,43.25
2023-03-22T02:21:34.730Z,43.97
2023-03-22T02:22:34.725Z,50.18
2023-03-22T02:23:35.188Z,43.14
2023-03-22T02:24:34.738Z,50.62
2023-03-22T02:25:34.698Z,48.13
2023-03-22T02:26:34.688Z,43.46
2023-03-22T02:27:34.699Z,51.12
2023-03-22T02:28:34.676Z,54.25
2023-03-22T02:29:34.678Z,55.81
2023-03-22T02:30:35.823Z,52.88
2023-03-22T02:31:34.692Z,44.82
2023-03-22T02:32:34.659Z,45.72
2023-03-22T02:33:34.635Z,50.95
2023-03-22T02:34:34.704Z,48.56
2023-03-22T02:35:34.729Z,47.84
2023-03-22T02:36:34.621Z,49.73
2023-03-22T02:37:34.611Z,50.57
2023-03-22T02:38:34.602Z,50.22
2023-03-22T02:39:34.608Z,50.03
2023-03-22T02:40:34.603Z,46.26
2023-03-22T02:41:34.660Z,55.28
2023-03-22T02:42:34.602Z,44.68
2023-03-22T02:43:34.600Z,43.95
2023-03-22T02:44:34.582Z,43.77
2023-03-22T02:45:34.596Z,50.61
2023-03-22T02:46:34.594Z,52.68
2023-03-22T02:47:34.572Z,50.71
2023-03-22T02:48:34.528Z,49.79
2023-03-22T02:49:36.156Z,44.02
2023-03-22T02:50:34.723Z,45.82
2023-03-22T02:51:34.511Z,50.85
2023-03-22T02:52:34.503Z,53.09
2023-03-22T02:53:34.493Z,46.42
2023-03-22T02:55:07.053Z,51.91
2023-03-22T02:55:35.153Z,55.36
2023-03-22T02:56:34.480Z,43.83
2023-03-22T02:57:34.458Z,49.38
2023-03-22T02:58:34.470Z,44.79
2023-03-22T02:59:34.449Z,43.57
2023-03-22T03:00:34.516Z,45.05
2023-03-22T03:01:34.535Z,50.86
2023-03-22T03:02:34.423Z,50.62
2023-03-22T03:03:34.419Z,44.66
2023-03-22T03:04:35.397Z,50.53
2023-03-22T03:05:35.994Z,43.17
2023-03-22T03:06:34.436Z,42.26
2023-03-22T03:07:34.379Z,49.62
2023-03-22T03:08:34.437Z,43.90
2023-03-22T03:09:34.384Z,50.97
2023-03-22T03:10:34.354Z,51.29
2023-03-22T03:11:34.369Z,46.98
2023-03-22T03:12:34.392Z,49.76
2023-03-22T03:13:34.352Z,45.17
2023-03-22T03:14:34.364Z,46.98
2023-03-22T03:15:34.351Z,56.00
2023-03-22T03:16:34.504Z,43.46
2023-03-22T03:17:34.316Z,51.50
2023-03-22T03:18:34.352Z,50.51
2023-03-22T03:19:34.386Z,45.40
2023-03-22T03:20:34.283Z,50.23
2023-03-22T03:21:34.284Z,45.98
2023-03-22T03:22:34.310Z,47.64
2023-03-22T03:23:34.254Z,46.30
2023-03-22T03:24:35.258Z,45.05
2023-03-22T03:25:34.253Z,50.86
2023-03-22T03:26:34.270Z,47.32
2023-03-22T03:27:34.260Z,51.00
2023-03-22T03:28:34.256Z,52.40
2023-03-22T03:29:34.241Z,44.71
2023-03-22T03:30:34.202Z,58.13
2023-03-22T03:31:34.245Z,50.01
2023-03-22T03:32:34.205Z,45.45
2023-03-22T03:33:34.209Z,56.71
2023-03-22T03:34:34.186Z,56.77
2023-03-22T03:35:34.199Z,55.30
2023-03-22T03:36:34.162Z,50.90
2023-03-22T03:37:34.194Z,46.72
2023-03-22T03:38:34.197Z,46.21
2023-03-22T03:39:34.139Z,61.55
2023-03-22T03:40:34.144Z,52.03
2023-03-22T03:41:34.140Z,53.69
2023-03-22T03:42:34.139Z,52.93
2023-03-22T03:43:34.144Z,52.53
2023-03-22T03:44:34.264Z,51.71
2023-03-22T03:46:06.599Z,58.78
2023-03-22T03:46:34.095Z,57.16
2023-03-22T04:03:54.027Z,55.96
2023-03-22T04:04:55.237Z,58.91
2023-03-22T04:05:55.174Z,64.26
2023-03-22T04:06:55.155Z,64.97
2023-03-22T04:07:55.191Z,58.21
2023-03-22T04:08:55.135Z,57.13
2023-03-22T04:09:55.142Z,56.36
2023-03-22T04:10:55.156Z,57.43
2023-03-22T04:11:55.114Z,62.50
2023-03-22T04:12:55.150Z,64.92
2023-03-22T04:13:55.101Z,56.07
2023-03-22T04:14:55.118Z,62.14
2023-03-22T04:15:55.096Z,50.77
2023-03-22T04:16:55.214Z,60.17
2023-03-22T04:17:55.138Z,55.73
2023-03-22T04:18:55.773Z,60.65
2023-03-22T04:19:55.051Z,66.17
2023-03-22T04:20:55.088Z,61.04
2023-03-22T04:21:55.054Z,54.42
2023-03-22T04:22:55.078Z,65.23
2023-03-22T04:23:55.029Z,65.92
2023-03-22T04:24:55.029Z,61.49
2023-03-22T04:25:55.040Z,68.86
2023-03-22T04:26:55.046Z,63.48
2023-03-22T04:27:55.055Z,60.43
2023-03-22T04:28:55.020Z,61.91
2023-03-22T04:29:55.017Z,62.44
2023-03-22T04:30:55.104Z,63.91
2023-03-22T04:31:54.982Z,63.84
2023-03-22T04:32:54.973Z,53.15
2023-03-22T04:33:54.962Z,63.47
2023-03-22T04:34:54.965Z,64.84
2023-03-22T04:35:54.964Z,63.82
2023-03-22T04:36:54.948Z,66.32
2023-03-22T04:37:54.976Z,62.18
2023-03-22T04:38:55.061Z,66.46
2023-03-22T04:39:54.929Z,62.10
2023-03-22T04:40:54.911Z,63.52
2023-03-22T04:41:54.917Z,66.36
2023-03-22T04:42:54.886Z,61.19
2023-03-22T04:43:54.869Z,64.65
2023-03-22T04:44:54.914Z,67.12
2023-03-22T04:45:55.158Z,66.51
2023-03-22T04:46:54.851Z,65.97
2023-03-22T04:47:54.896Z,64.27
2023-03-22T04:48:54.849Z,63.91
2023-03-22T04:49:54.873Z,66.64
2023-03-22T04:50:54.839Z,64.15
2023-03-22T04:51:54.850Z,62.79
2023-03-22T04:52:54.817Z,65.21
2023-03-22T04:53:54.801Z,57.35
2023-03-22T04:54:54.820Z,60.51
2023-03-22T04:55:54.788Z,65.79
2023-03-22T04:56:54.796Z,69.09
2023-03-22T04:57:54.793Z,65.53
2023-03-22T04:58:54.769Z,67.52
2023-03-22T04:59:54.772Z,64.44
2023-03-22T05:00:54.744Z,63.17
2023-03-22T05:01:54.795Z,61.90
2023-03-22T05:02:54.787Z,69.16
2023-03-22T05:03:54.750Z,61.69
2023-03-22T05:04:54.766Z,63.60
2023-03-22T05:05:54.712Z,68.02
2023-03-22T05:06:54.695Z,54.96
2023-03-22T05:07:54.687Z,70.25
2023-03-22T05:08:54.682Z,67.67
2023-03-22T05:09:54.695Z,66.65
2023-03-22T05:10:54.687Z,67.73
2023-03-22T05:11:54.647Z,67.31
2023-03-22T05:12:54.663Z,71.01
2023-03-22T05:13:54.686Z,66.77
2023-03-22T05:14:55.639Z,65.93
2023-03-22T05:15:54.641Z,61.85
2023-03-22T05:16:54.653Z,61.74
2023-03-22T05:17:54.626Z,65.35
2023-03-22T05:18:54.630Z,59.00
2023-03-22T05:19:54.588Z,67.22
2023-03-22T05:20:54.599Z,64.63
2023-03-22T05:21:54.607Z,66.16
2023-03-22T05:22:54.583Z,63.80
2023-03-22T05:23:54.618Z,70.89
2023-03-22T05:24:54.567Z,64.56
2023-03-22T05:25:54.545Z,67.53
2023-03-22T05:26:54.635Z,61.81
2023-03-22T05:27:54.520Z,67.12
2023-03-22T05:28:54.530Z,65.40
2023-03-22T05:29:54.530Z,68.09
2023-03-22T05:30:57.028Z,69.45
2023-03-22T05:31:55.552Z,69.82
2023-03-22T05:32:54.510Z,67.42
2023-03-22T05:33:54.505Z,62.78
2023-03-22T05:34:54.486Z,71.23
2023-03-22T05:35:54.481Z,64.50
2023-03-22T05:36:54.495Z,66.55
2023-03-22T05:37:54.494Z,70.99
2023-03-22T05:38:54.458Z,66.51
2023-03-22T05:39:54.598Z,67.42
2023-03-22T05:40:54.440Z,67.76
2023-03-22T05:41:54.425Z,71.74
2023-03-22T05:42:54.415Z,69.03
2023-03-22T05:43:54.452Z,67.41
2023-03-22T05:44:54.416Z,70.94
2023-03-22T05:45:54.421Z,72.09
2023-03-22T05:46:54.446Z,67.98
2023-03-22T05:47:54.453Z,71.03
2023-03-22T05:48:54.414Z,65.13
2023-03-22T05:49:54.419Z,70.96
2023-03-22T05:50:55.279Z,67.88
2023-03-22T05:51:54.370Z,66.94
2023-03-22T05:52:55.475Z,59.35
2023-03-22T05:53:54.365Z,63.96
2023-03-22T05:54:54.347Z,71.50
2023-03-22T05:55:54.342Z,71.72
2023-03-22T05:56:55.777Z,67.30
2023-03-22T05:57:55.315Z,58.70
2023-03-22T05:58:54.424Z,74.45
2023-03-22T05:59:54.378Z,66.78
2023-03-22T06:00:54.367Z,71.36
2023-03-22T06:01:54.331Z,67.42
2023-03-22T06:02:55.293Z,68.83
2023-03-22T06:03:54.285Z,69.64
2023-03-22T06:04:54.261Z,70.85
2023-03-22T06:05:54.260Z,69.10
2023-03-22T06:06:54.273Z,68.58
2023-03-22T06:07:54.239Z,68.98
2023-03-22T06:08:56.457Z,63.98
2023-03-22T06:09:55.224Z,73.52
2023-03-22T06:10:54.197Z,69.98
2023-03-22T06:12:27.685Z,66.42
2023-03-22T06:12:54.292Z,70.33
2023-03-22T06:13:54.208Z,67.65
2023-03-22T06:14:54.196Z,68.82
2023-03-22T06:15:54.175Z,73.67
2023-03-22T06:16:54.274Z,73.76
2023-03-22T06:17:54.201Z,72.75
2023-03-22T06:18:54.168Z,70.34
2023-03-22T06:19:54.152Z,69.74
2023-03-22T06:20:54.147Z,72.92
2023-03-22T06:21:54.287Z,73.32
2023-03-22T06:22:54.139Z,70.45
2023-03-22T06:23:54.169Z,71.52
2023-03-22T06:24:54.108Z,71.88
2023-03-22T06:25:54.117Z,69.51
2023-03-22T06:26:54.103Z,70.67
2023-03-22T06:27:54.094Z,71.64
2023-03-22T06:28:54.088Z,63.54
2023-03-22T06:29:54.167Z,73.13
2023-03-22T06:30:54.123Z,69.14
2023-03-22T06:31:54.262Z,72.75
2023-03-22T06:32:54.043Z,72.36
2023-03-22T06:33:55.848Z,68.92
2023-03-22T06:34:55.043Z,72.22
2023-03-22T06:35:54.066Z,72.39
2023-03-22T06:36:54.042Z,69.79
2023-03-22T06:37:54.014Z,72.95
2023-03-22T06:38:54.036Z,72.92
2023-03-22T06:39:53.985Z,68.37
2023-03-22T06:40:53.981Z,74.32
2023-03-22T06:41:53.988Z,71.90
2023-03-22T06:42:54.024Z,72.39
2023-03-22T06:43:53.967Z,64.39
2023-03-22T06:44:53.979Z,72.12
2023-03-22T06:45:53.950Z,71.34
2023-03-22T06:46:53.915Z,65.95
2023-03-22T06:47:53.966Z,72.03
2023-03-22T06:48:53.911Z,71.52
2023-03-22T06:49:53.912Z,64.57
2023-03-22T06:50:53.914Z,72.43
2023-03-22T06:51:53.888Z,69.32
2023-03-22T06:52:53.898Z,67.63
2023-03-22T06:53:53.867Z,70.30
2023-03-22T06:54:53.864Z,71.42
2023-03-22T06:55:55.442Z,69.05
2023-03-22T06:56:54.848Z,65.04
2023-03-22T06:57:53.884Z,66.26
2023-03-22T06:58:53.825Z,71.43
2023-03-22T06:59:53.825Z,70.46
2023-03-22T07:00:53.823Z,66.51
2023-03-22T07:01:53.864Z,64.81
2023-03-22T07:02:53.812Z,70.23
2023-03-22T07:03:53.805Z,66.68
2023-03-22T07:04:53.805Z,69.16
2023-03-22T07:05:53.772Z,63.39
2023-03-22T07:06:53.771Z,68.94
2023-03-22T07:07:53.772Z,67.62
2023-03-22T07:08:53.766Z,59.00
2023-03-22T07:09:53.782Z,69.44
2023-03-22T07:10:53.844Z,74.11
2023-03-22T07:11:53.735Z,71.32
2023-03-22T07:12:53.733Z,65.87
2023-03-22T07:13:53.743Z,66.65
2023-03-22T07:14:53.723Z,70.91
2023-03-22T07:15:53.716Z,62.01
2023-03-22T07:16:54.712Z,71.23
2023-03-22T07:17:53.701Z,69.11
2023-03-22T07:18:53.707Z,65.11
2023-03-22T07:19:53.693Z,67.89
2023-03-22T07:20:53.749Z,68.34
2023-03-22T07:21:53.703Z,70.01
2023-03-22T07:22:53.663Z,62.08
2023-03-22T07:23:53.776Z,69.62
2023-03-22T07:24:57.722Z,58.86
2023-03-22T07:25:55.630Z,75.49
2023-03-22T07:26:53.629Z,69.93
2023-03-22T07:27:53.620Z,70.24
2023-03-22T07:28:53.728Z,69.14
2023-03-22T07:29:53.613Z,69.76
2023-03-22T07:30:53.608Z,69.56
2023-03-22T07:31:53.703Z,67.71
2023-03-22T07:32:53.598Z,66.53
2023-03-22T07:33:53.580Z,68.50
2023-03-22T07:34:53.578Z,69.16
2023-03-22T07:35:54.339Z,67.31
2023-03-22T07:36:53.553Z,65.75
2023-03-22T07:37:53.634Z,60.17
2023-03-22T07:38:53.537Z,68.83
2023-03-22T07:39:53.543Z,66.37
2023-03-22T07:40:53.551Z,68.92
2023-03-22T07:41:53.518Z,68.85
2023-03-22T07:42:55.753Z,70.14
2023-03-22T07:44:02.249Z,68.32
2023-03-22T07:44:55.506Z,68.15
2023-03-22T07:45:53.557Z,68.57
2023-03-22T07:46:53.501Z,65.48
2023-03-22T07:47:53.565Z,69.19
2023-03-22T07:48:53.556Z,65.61
2023-03-22T07:49:53.460Z,55.43
2023-03-22T07:50:53.480Z,65.44
2023-03-22T07:51:53.462Z,67.47
2023-03-22T07:52:53.759Z,67.56
2023-03-22T07:53:53.528Z,68.84
2023-03-22T07:54:53.740Z,66.53
2023-03-22T07:55:53.417Z,66.71
2023-03-22T07:56:53.414Z,66.19
2023-03-22T07:57:53.424Z,67.78
2023-03-22T07:58:53.468Z,58.94
2023-03-22T07:59:53.429Z,67.86
2023-03-22T08:00:53.447Z,66.71
2023-03-22T08:01:53.477Z,65.24
2023-03-22T08:02:53.379Z,67.74
2023-03-22T08:03:53.393Z,64.75
2023-03-22T08:04:55.807Z,66.83
2023-03-22T08:05:54.355Z,68.80
2023-03-22T08:06:53.389Z,67.06
2023-03-22T08:07:53.334Z,70.94
2023-03-22T08:08:53.351Z,69.18
2023-03-22T08:09:53.335Z,70.09
2023-03-22T08:10:53.305Z,65.58
2023-03-22T08:11:53.330Z,66.82
2023-03-22T08:12:53.318Z,63.61
2023-03-22T08:13:53.270Z,67.76
2023-03-22T08:14:53.294Z,63.89
2023-03-22T08:15:53.383Z,70.86
2023-03-22T08:16:53.296Z,67.83
2023-03-22T08:17:53.248Z,62.14
2023-03-22T08:18:53.265Z,68.06
2023-03-22T08:19:53.273Z,69.72
2023-03-22T08:20:53.271Z,67.60
2023-03-22T08:21:53.225Z,67.70
2023-03-22T08:22:53.267Z,73.13
2023-03-22T08:23:53.222Z,65.68
2023-03-22T08:24:53.330Z,61.13
2023-03-22T08:25:53.219Z,69.53
2023-03-22T08:26:53.260Z,67.11
2023-03-22T08:27:53.163Z,66.15
2023-03-22T08:28:53.250Z,60.47
2023-03-22T08:29:53.186Z,69.02
2023-03-22T08:30:53.158Z,67.62
2023-03-22T08:31:53.206Z,68.22
2023-03-22T08:32:53.134Z,65.65
2023-03-22T08:33:53.174Z,69.58
2023-03-22T08:34:53.108Z,69.07
2023-03-22T08:35:53.173Z,64.92
2023-03-22T08:36:53.188Z,67.03
2023-03-22T08:37:53.133Z,67.44
2023-03-22T08:38:53.105Z,68.52
2023-03-22T08:39:53.084Z,68.52
2023-03-22T08:40:54.107Z,65.55
2023-03-22T08:41:53.116Z,63.94
2023-03-22T08:42:53.075Z,69.22
2023-03-22T08:43:53.097Z,69.72
2023-03-22T08:44:53.047Z,61.92
2023-03-22T08:45:53.063Z,65.40
2023-03-22T08:46:53.023Z,67.54
2023-03-22T08:47:53.123Z,69.45
2023-03-22T08:48:53.161Z,62.10
2023-03-22T08:49:53.040Z,66.45
2023-03-22T08:50:53.033Z,67.43
2023-03-22T08:51:52.982Z,70.89
2023-03-22T08:52:52.991Z,72.65
2023-03-22T08:53:53.056Z,64.48
2023-03-22T08:54:52.970Z,68.34
2023-03-22T08:55:52.966Z,68.09
2023-03-22T08:56:53.021Z,69.52
2023-03-22T08:57:52.933Z,64.89
2023-03-22T08:58:52.964Z,65.84
2023-03-22T08:59:52.952Z,63.58
2023-03-22T09:00:53.046Z,71.65
2023-03-22T09:01:53.007Z,66.61
2023-03-22T09:02:52.946Z,68.57
2023-03-22T09:03:52.952Z,62.59
2023-03-22T09:04:53.004Z,67.10
2023-03-22T09:05:52.913Z,66.60
2023-03-22T09:06:52.885Z,66.43
2023-03-22T09:07:52.860Z,67.51
2023-03-22T09:08:52.866Z,69.53
2023-03-22T09:09:52.866Z,66.81
2023-03-22T09:10:52.887Z,69.34
2023-03-22T09:11:52.849Z,61.69
2023-03-22T09:12:52.858Z,70.29
2023-03-22T09:13:52.846Z,62.14
2023-03-22T09:14:52.847Z,65.20
2023-03-22T09:15:52.941Z,66.31
2023-03-22T09:16:52.794Z,65.66
2023-03-22T09:17:52.829Z,70.28
2023-03-22T09:18:52.837Z,69.51
2023-03-22T09:20:05.873Z,65.79
2023-03-22T09:20:54.851Z,61.16
2023-03-22T09:21:52.757Z,67.61
2023-03-22T09:22:52.776Z,61.55
2023-03-22T09:23:52.790Z,67.26
2023-03-22T09:24:52.796Z,67.40
2023-03-22T09:25:52.743Z,70.27
2023-03-22T09:26:52.737Z,68.80
2023-03-22T09:27:52.719Z,67.87
2023-03-22T09:28:52.783Z,70.19
2023-03-22T09:29:52.731Z,69.89
2023-03-22T09:30:52.729Z,71.33
2023-03-22T09:31:52.742Z,66.30
2023-03-22T09:32:52.700Z,68.60
2023-03-22T09:33:52.737Z,68.62
2023-03-22T09:34:52.734Z,61.20
2023-03-22T09:35:52.723Z,69.13
2023-03-22T09:36:52.674Z,67.99
2023-03-22T09:37:52.761Z,62.40
2023-03-22T09:38:52.623Z,66.42
2023-03-22T09:39:53.607Z,65.90
2023-03-22T09:40:52.648Z,69.09
2023-03-22T09:41:52.662Z,70.70
2023-03-22T09:42:52.633Z,67.99
2023-03-22T09:43:52.595Z,67.44
2023-03-22T09:44:52.643Z,66.21
2023-03-22T09:45:52.634Z,67.73
2023-03-22T09:46:52.587Z,65.97
2023-03-22T09:47:52.721Z,70.80
2023-03-22T09:48:52.576Z,66.70
2023-03-22T09:49:54.147Z,66.40
2023-03-22T09:50:53.555Z,67.02
2023-03-22T09:51:52.595Z,61.62
2023-03-22T09:52:52.580Z,68.69
2023-03-22T09:53:52.531Z,70.46
2023-03-22T09:54:53.426Z,68.97
2023-03-22T09:55:53.500Z,66.53
2023-03-22T09:56:52.526Z,65.71
2023-03-22T09:57:52.502Z,67.44
2023-03-22T09:58:52.568Z,69.02
2023-03-22T09:59:52.479Z,67.03
2023-03-22T10:00:52.570Z,61.27
2023-03-22T10:01:52.668Z,68.27
2023-03-22T10:02:52.497Z,70.95
2023-03-22T10:03:52.509Z,67.07
2023-03-22T10:04:52.460Z,64.46
2023-03-22T10:05:52.474Z,69.58
2023-03-22T10:06:52.409Z,66.27
2023-03-22T10:07:52.417Z,69.34
2023-03-22T10:08:53.404Z,70.03
2023-03-22T10:09:52.421Z,70.37
2023-03-22T10:10:52.416Z,70.13
2023-03-22T10:11:52.537Z,66.63
2023-03-22T10:12:52.362Z,67.00
2023-03-22T10:13:52.371Z,70.94
2023-03-22T10:14:52.385Z,71.24
2023-03-22T10:15:52.453Z,70.79
2023-03-22T10:16:53.773Z,67.72
2023-03-22T10:17:52.345Z,69.31
2023-03-22T10:18:52.320Z,70.28
2023-03-22T10:19:52.329Z,65.57
2023-03-22T10:20:52.318Z,66.06
2023-03-22T10:21:52.373Z,70.28
2023-03-22T10:22:53.395Z,64.95
2023-03-22T10:23:53.281Z,65.84
2023-03-22T10:24:52.291Z,68.53
2023-03-22T10:25:52.314Z,61.79
2023-03-22T10:26:52.313Z,68.19
2023-03-22T10:27:52.271Z,68.26
2023-03-22T10:28:52.272Z,66.84
2023-03-22T10:29:52.259Z,68.86
2023-03-22T10:30:52.272Z,66.45
2023-03-22T10:31:52.311Z,67.21
2023-03-22T10:32:57.767Z,68.59
2023-03-22T10:33:54.199Z,66.06
2023-03-22T10:34:52.212Z,68.86
2023-03-22T10:35:52.324Z,58.88
2023-03-22T10:36:52.200Z,64.45
2023-03-22T10:37:52.237Z,62.64
2023-03-22T10:38:52.185Z,63.68
2023-03-22T10:39:52.192Z,68.20
2023-03-22T10:40:52.198Z,71.29
2023-03-22T10:41:52.210Z,64.21
2023-03-22T10:42:52.184Z,68.92
2023-03-22T10:43:52.154Z,60.59
2023-03-22T10:44:52.174Z,71.59
2023-03-22T10:45:52.151Z,65.54
2023-03-22T10:46:52.229Z,67.98
2023-03-22T10:47:52.197Z,68.62
2023-03-22T10:48:52.921Z,67.86
2023-03-22T10:49:52.086Z,65.83
2023-03-22T10:50:52.089Z,68.63
2023-03-22T10:51:52.079Z,65.83
2023-03-22T10:52:52.093Z,64.79
2023-03-22T10:53:52.091Z,69.94
2023-03-22T10:54:52.075Z,63.32
2023-03-22T10:55:52.064Z,68.76
2023-03-22T10:56:52.116Z,64.54
2023-03-22T10:57:52.111Z,69.99
2023-03-22T10:58:52.057Z,64.74
2023-03-22T10:59:52.072Z,70.00
2023-03-22T11:00:52.117Z,67.64
2023-03-22T11:01:52.262Z,66.17
2023-03-22T11:02:52.065Z,68.18
2023-03-22T11:03:52.009Z,68.80
2023-03-22T11:04:51.988Z,66.53
2023-03-22T11:05:52.006Z,71.08
2023-03-22T11:06:54.638Z,67.28
2023-03-22T11:07:51.985Z,69.11
2023-03-22T11:08:52.004Z,67.33
2023-03-22T11:09:52.002Z,68.87
2023-03-22T11:10:52.053Z,70.14
2023-03-22T11:11:51.943Z,69.51
2023-03-22T11:12:51.946Z,69.30
2023-03-22T11:13:51.903Z,65.13
2023-03-22T11:14:52.036Z,68.81
2023-03-22T11:15:51.941Z,71.16
2023-03-22T11:16:51.980Z,72.59
2023-03-22T11:17:51.905Z,69.20
2023-03-22T11:18:51.889Z,70.23
2023-03-22T11:19:52.228Z,67.10
2023-03-22T11:20:51.925Z,67.89
2023-03-22T11:21:51.883Z,67.30
2023-03-22T11:22:51.865Z,70.47
2023-03-22T11:23:51.835Z,67.48
2023-03-22T11:24:51.939Z,70.64
2023-03-22T11:25:51.973Z,69.54
2023-03-22T11:26:51.844Z,69.65
2023-03-22T11:27:51.874Z,69.73
2023-03-22T11:28:51.819Z,66.89
2023-03-22T11:29:51.814Z,68.43
2023-03-22T11:30:51.773Z,65.06
2023-03-22T11:31:54.219Z,67.99
2023-03-22T11:32:51.856Z,69.69
2023-03-22T11:33:51.757Z,71.97
2023-03-22T11:34:51.737Z,68.36
2023-03-22T11:35:51.776Z,66.72
2023-03-22T11:36:51.763Z,70.94
2023-03-22T11:37:51.781Z,65.82
2023-03-22T11:38:51.733Z,73.61
2023-03-22T11:39:51.741Z,68.93
2023-03-22T11:40:51.760Z,72.37
2023-03-22T11:41:51.721Z,62.97
2023-03-22T11:42:51.704Z,67.38
2023-03-22T11:43:52.748Z,69.12
2023-03-22T11:44:51.703Z,68.69
2023-03-22T11:45:51.798Z,66.02
2023-03-22T11:46:51.710Z,67.59
2023-03-22T11:47:51.776Z,68.56
2023-03-22T11:48:51.767Z,70.84
2023-03-22T11:49:51.686Z,68.58
2023-03-22T11:50:51.726Z,67.46
2023-03-22T11:51:51.681Z,67.80
2023-03-22T11:52:51.664Z,69.02
2023-03-22T11:53:51.634Z,68.32
2023-03-22T11:54:51.690Z,66.99
2023-03-22T11:55:51.620Z,69.92
2023-03-22T11:56:51.585Z,68.93
2023-03-22T11:57:51.612Z,62.20
2023-03-22T11:58:51.597Z,67.92
2023-03-22T11:59:51.567Z,70.76
2023-03-22T12:00:51.576Z,67.23
2023-03-22T12:01:51.572Z,66.75
2023-03-22T12:02:51.677Z,68.63
2023-03-22T12:03:51.780Z,70.69
2023-03-22T12:04:51.609Z,69.38
2023-03-22T12:05:51.559Z,65.38
2023-03-22T12:06:51.546Z,68.07
2023-03-22T12:07:51.520Z,68.78
2023-03-22T12:08:51.526Z,67.27
2023-03-22T12:09:51.538Z,68.73
2023-03-22T12:10:52.693Z,70.14
2023-03-22T12:11:51.523Z,66.30
2023-03-22T12:12:51.520Z,64.58
2023-03-22T12:13:51.494Z,67.35
2023-03-22T12:14:51.480Z,68.34
2023-03-22T12:15:52.434Z,68.41
2023-03-22T12:16:51.467Z,67.55
2023-03-22T12:17:51.479Z,71.44
2023-03-22T12:18:51.455Z,64.40
2023-03-22T12:19:51.455Z,67.13
2023-03-22T12:20:51.429Z,69.59
2023-03-22T12:21:51.423Z,69.78
2023-03-22T12:22:51.390Z,68.21
2023-03-22T12:23:51.388Z,72.03
2023-03-22T12:24:51.429Z,69.41
2023-03-22T12:25:51.416Z,68.75
2023-03-22T12:26:51.388Z,67.58
2023-03-22T12:27:51.414Z,66.73
2023-03-22T12:28:51.373Z,60.25
2023-03-22T12:29:51.390Z,69.38
2023-03-22T12:30:51.469Z,67.07
2023-03-22T12:31:52.641Z,70.14
2023-03-22T12:32:52.481Z,68.36
2023-03-22T12:33:51.315Z,65.99
2023-03-22T12:34:55.021Z,68.55
2023-03-22T12:35:52.350Z,68.28
2023-03-22T12:36:51.312Z,67.52
2023-03-22T12:37:51.319Z,68.23
2023-03-22T12:38:51.289Z,67.74
2023-03-22T12:39:51.323Z,69.42
2023-03-22T12:40:51.364Z,69.23
2023-03-22T12:41:51.257Z,68.39
2023-03-22T12:42:54.127Z,68.31
2023-03-22T12:43:53.277Z,67.98
2023-03-22T12:45:04.246Z,70.44
2023-03-22T12:45:53.350Z,71.76
2023-03-22T12:46:51.285Z,57.14
2023-03-22T12:47:51.254Z,66.60
2023-03-22T12:48:51.277Z,70.53
2023-03-22T12:49:51.212Z,65.28
2023-03-22T12:50:51.209Z,70.86
2023-03-22T12:51:51.225Z,68.02
2023-03-22T12:52:51.243Z,70.23
2023-03-22T12:53:51.203Z,70.62
2023-03-22T12:54:51.194Z,70.82
2023-03-22T12:55:51.221Z,65.43
2023-03-22T12:56:51.168Z,71.36
2023-03-22T12:57:51.171Z,68.86
2023-03-22T12:58:51.167Z,68.84
2023-03-22T12:59:51.136Z,67.22
2023-03-22T13:00:51.158Z,67.84
2023-03-22T13:01:51.177Z,65.69
2023-03-22T13:02:51.203Z,70.07
2023-03-22T13:03:53.842Z,69.75
2023-03-22T13:04:51.111Z,67.97
2023-03-22T13:05:51.088Z,70.82
2023-03-22T13:06:51.081Z,67.10
2023-03-22T13:07:51.125Z,67.90
2023-03-22T13:08:54.245Z,71.09